Hanover, IN (47243)

11:13 AM EDT on July 24, 2016 (GMT -0400)
Historic Madison | | Change Station
Active Advisory: Heat Advisory

Elev 463 ft 38.74 °N, 85.39 °W | Updated 3 seconds ago

Clear
Clear
98.1 °F
Feels Like 123 °F
N
0.0
Wind Variable Wind from ESE
Gusts 3.8 mph

Today
High -- | Low -- °F
--% Chance of Precip.
Yesterday
High -- | Low -- °F
Precip. -- in
Pressure 30.00 in
Visibility 10.0 miles
Clouds Clear
Heat Index 123 °F
Dew Point 82 °F
Humidity 60%
Rainfall 0.00 in
Snow Depth Not available.
6:36 AM 8:59 PM
Waning Gibbous, 75% visible
METAR KLOU 241453Z 20005KT 10SM CLR 31/24 A3002 RMK AO2 SLP159 T03110239 51008
Pressure 30.00 in
Visibility 10.0 miles
Clouds Clear
Heat Index 123 °F
Dew Point 82 °F
Humidity 60%
Rainfall 0.00 in
Snow Depth Not available.
6:36 AM 8:59 PM
Waning Gibbous, 75% visible
METAR KLOU 241453Z 20005KT 10SM CLR 31/24 A3002 RMK AO2 SLP159 T03110239 51008

10-Day Weather Forecast

Almanac

Astronomy

Jul. 24, 2016 Rise Set
Actual Time
Civil Twilight
Nautical Twilight
Astronomical Twilight
Moon
Length of Visible Light
Length of Day
Tomorrow will be .
, % of the Moon is Illuminated

Today's Extremes

State Highs State Lows

Community

WunderPhotos

Upload Photos

1,927,076 photos uploaded!

WunderBlog® & News

Nearby

Air Quality

  Air Quality AQ Index Pollutant
Not available.

Snow Depth

Station Depth Elevation

Earthquake Activity

City Distance Mag. Time & Date
Minimum magnitude displayed is 2.5.

Coastal Water Temperatures

Place Temperature

Stations

Nearby Weather Stations

Station Location Temp. Windchill Dew Point Humidity Wind Precip. Elev Updated Type
                   

Watches & Warnings

Heat Advisory
Issued: 2:38 AM CDT Jul. 24, 2016 – National Weather Service

... Heat advisory remains in effect until 8 PM EDT /7 PM CDT/ this
evening...

* temperature... high temperatures this afternoon will warm into
the lower 90s. These temperatures combined with dewpoints in the
lower to middle 70s will produce heat index readings near 105
degrees during the mid to late afternoon hours.

Precautionary/preparedness actions...

Take extra precautions... if you work or spend time outside. When
possible... reschedule strenuous activities to early morning or
evening. Know the signs and symptoms of heat exhaustion and heat
stroke. Wear light weight and loose fitting clothing when
possible and drink plenty of water.